• Join FlightAware (Why Join?)
  • Login
  • US Flag 
01:41AM EDT


 

Airport Tracker/Info


-or-


 

Live Flight TrackerFlight Track Log ✈ DAL1912 ✈ 22-Jun-2013 ✈ KSLC - KATL

Flight Track Log - Related Links

Times and Time Zones

All times are in EDT time to prevent confusion due to time zone crossing. See the DAL1912 flight status page for this flight to view local times or setup timezone preferences in your user account.

Time Position Orientation Groundspeed Altitude Reporting Facility
EDT Latitude Longitude Course Direction KTS MPH feet Rate Location/Type
01:17PM 40.8081 -111.9647 158° South 182 209 5,100  Level Salt Lake Center
01:18PM 40.8703 -111.9747 353° North 227 261 7,000 2,280 Climbing Salt Lake Center
01:19PM 40.9264 -111.9803 356° North 252 290 9,400 2,640 Climbing Salt Lake Center
01:20PM 41.1258 -111.9293 51° Northeast  Level FlightAware Approximate
01:20PM 41.0008 -111.9711 North 277 319 11,800  Level Salt Lake Center
01:21PM 41.1188 -111.7729 114° Southeast  Level FlightAware Approximate
01:21PM 41.0161 -111.8717 78° East 301 346 14,000  Level Salt Lake Center
01:22PM 41.0069 -111.7080 158° South  Level FlightAware Approximate
01:22PM 40.9550 -111.7856 133° Southeast 340 391 14,900  Level Salt Lake Center
01:23PM 40.8669 -111.6542 132° Southeast 405 466 16,900 1,980 Climbing Salt Lake Center
01:24PM 40.8147 -111.5167 117° Southeast 435 501 19,000 1,800 Climbing Salt Lake Center
01:25PM 40.7853 -111.3564 104° East 453 521 20,700 1,680 Climbing Salt Lake Center
01:26PM 40.7483 -111.1958 107° East 456 525 22,500 1,800 Climbing Salt Lake Center
01:27PM 40.7103 -111.0308 107° East 468 539 24,400 1,800 Climbing Salt Lake Center
01:28PM 40.6633 -110.8256 107° East 488 562 26,300 1,560 Climbing Salt Lake Center
01:29PM 40.6225 -110.6536 107° East 494 568 27,700 1,320 Climbing Salt Lake Center
01:30PM 40.5792 -110.4697 107° East 503 579 29,100 1,200 Climbing Salt Lake Center
01:31PM 40.5400 -110.3050 107° East 508 585 30,300 1,440 Climbing Salt Lake Center
01:32PM 40.5011 -110.1022 104° East 512 589 32,100 1,500 Climbing Salt Lake Center
01:33PM 40.4689 -109.9314 104° East 505 581 33,500 1,380 Climbing Salt Lake Center
01:34PM 40.4308 -109.7317 104° East 503 579 35,000 1,200 Climbing Salt Lake Center
01:35PM 40.3981 -109.5644 104° East 497 572 36,000 960 Climbing Salt Lake Center
01:36PM 40.3586 -109.3678 105° East 498 573 37,000 480 Climbing Salt Lake Center
01:37PM 40.3264 -109.1994 104° East 497 572 37,000  Level Salt Lake Center
01:38PM 40.2933 -109.0303 104° East 498 573 37,000  Level Salt Lake Center
01:39PM 40.2539 -108.8339 105° East 498 573 37,000  Level Salt Lake Center
01:40PM 40.2264 -108.6914 104° East 498 573 37,000  Level Denver Center
01:41PM 40.1911 -108.5239 105° East 497 572 37,000  Level Denver Center
01:42PM 40.1514 -108.3283 105° East 496 571 37,000  Level Denver Center
01:43PM 40.1172 -108.1617 105° East 495 570 37,000  Level Denver Center
01:44PM 40.0761 -107.9661 105° East 499 574 37,000  Level Denver Center
01:45PM 40.0356 -107.8028 108° East 494 568 37,000  Level Denver Center
01:46PM 39.9842 -107.6142 110° East 493 567 37,000  Level Denver Center
01:47PM 39.9394 -107.4539 110° East 491 565 37,000  Level Denver Center
01:48PM 39.8961 -107.2936 109° East 490 564 37,000  Level Denver Center
01:49PM 39.8486 -107.1206 110° East 482 555 37,000  Level Denver Center
01:50PM 39.8039 -106.9558 109° East 478 550 37,000  Level Denver Center
01:52PM 39.7586 -106.7897 109° East 481 554 37,000  Level Denver Center
01:53PM 39.7125 -106.6242 110° East 480 552 37,000  Level Denver Center
01:54PM 39.6661 -106.4606 110° East 479 551 37,000  Level Denver Center
01:55PM 39.6106 -106.2639 110° East 480 552 37,000  Level Denver Center
01:56PM 39.5614 -106.0936 110° East 479 551 37,000  Level Denver Center
01:57PM 39.5147 -105.9319 110° East 481 554 37,000  Level Denver Center
01:58PM 39.4692 -105.7711 110° East 481 554 37,000  Level Denver Center
01:59PM 39.4208 -105.6108 111° Southeast 480 552 37,000  Level Denver Center
02:00PM 39.3744 -105.4511 111° Southeast 479 551 37,000  Level Denver Center
02:01PM 39.3083 -105.2292 111° Southeast 477 549 37,000  Level Denver Center
02:02PM 39.2700 -105.1025 111° Southeast 478 550 37,000  Level Denver Center
02:03PM 39.2139 -104.9139 111° Southeast 475 547 37,000  Level Denver Center
02:04PM 39.1664 -104.7564 111° Southeast 477 549 37,000  Level Denver Center
02:05PM 39.1189 -104.5992 111° Southeast 477 549 37,000  Level Denver Center
02:06PM 39.0619 -104.4106 111° Southeast 474 545 37,000  Level Denver Center
02:07PM 39.0131 -104.2528 112° Southeast 478 550 37,000  Level Denver Center
02:08PM 38.9658 -104.0947 111° Southeast 478 550 37,000  Level Denver Center
02:09PM 38.9153 -103.9364 112° Southeast 481 554 37,000  Level Denver Center
02:10PM 38.8653 -103.7767 112° Southeast 483 556 37,000  Level Denver Center
02:11PM 38.8161 -103.6189 112° Southeast 485 558 37,000  Level Denver Center
02:12PM 38.7589 -103.4239 111° Southeast 485 558 37,000  Level Denver Center
02:13PM 38.7106 -103.2617 111° Southeast 488 562 37,000  Level Denver Center
02:14PM 38.6631 -103.0983 110° East 491 565 37,000  Level Denver Center
02:16PM 38.6133 -102.9364 111° Southeast 491 565 37,000  Level Denver Center
02:17PM 38.5600 -102.7600 111° Southeast 494 568 37,000  Level Denver Center
02:18PM 38.5075 -102.5869 111° Southeast 494 568 37,000  Level Denver Center
02:19PM 38.4589 -102.4322 112° Southeast 493 567 37,000  Level Denver Center
02:20PM 38.4036 -102.2506 111° Southeast 493 567 37,000 480 Level Denver Center
02:21PM 38.3550 -102.0967 112° Southeast 489 563 38,000 900 Climbing Denver Center
02:22PM 38.3011 -101.9189 111° Southeast 482 555 38,900 480 Climbing Denver Center
02:23PM 38.2533 -101.7678 112° Southeast 481 554 39,000  Climbing Denver Center
02:24PM 38.1978 -101.5919 112° Southeast 480 552 39,000  Level Denver Center
02:25PM 38.1494 -101.4394 112° Southeast 484 557 39,000  Level Denver Center
02:26PM 38.1100 -101.3122 111° Southeast 484 557 39,000  Level Kansas City Center
02:27PM 38.0608 -101.1603 112° Southeast 484 557 39,000  Level Kansas City Center
02:28PM 38.0033 -100.9839 112° Southeast 482 555 39,000  Level Kansas City Center
02:29PM 37.9542 -100.8300 112° Southeast 486 559 39,000  Level Kansas City Center
02:30PM 37.9089 -100.6769 111° Southeast 482 555 39,000  Level Kansas City Center
02:31PM 37.8719 -100.4908 104° East 483 556 39,000  Level Kansas City Center
02:32PM 37.8386 -100.3347 105° East 480 552 39,000  Level Kansas City Center
02:33PM 37.7997 -100.1542 105° East 477 549 39,000  Level Kansas City Center
02:34PM 37.7667 -99.9981 105° East 478 550 39,000  Level Kansas City Center
02:35PM 37.7283 -99.8169 105° East 478 550 39,000  Level Kansas City Center
02:36PM 37.6944 -99.6628 105° East 476 548 39,000  Level Kansas City Center
02:37PM 37.6564 -99.4828 105° East 476 548 39,000  Level Kansas City Center
02:38PM 37.6247 -99.3411 106° East 476 548 39,000  Level Kansas City Center
02:39PM 37.5886 -99.1817 106° East 474 545 39,000  Level Kansas City Center
02:40PM 37.5506 -99.0203 107° East 479 551 39,000  Level Kansas City Center
02:41PM 37.5075 -98.8272 106° East 479 551 39,000  Level Kansas City Center
02:42PM 37.4711 -98.6697 106° East 474 545 39,000  Level Kansas City Center
02:43PM 37.4350 -98.5092 106° East 477 549 39,000  Level Kansas City Center
02:44PM 37.3978 -98.3500 106° East 478 550 39,000  Level Kansas City Center
02:45PM 37.3611 -98.1914 106° East 476 548 39,000  Level Kansas City Center
02:46PM 37.3169 -98.0011 106° East 477 549 39,000  Level Kansas City Center
02:47PM 37.2800 -97.8425 106° East 477 549 39,000  Level Kansas City Center
02:48PM 37.2414 -97.6836 107° East 478 550 39,000  Level Kansas City Center
02:49PM 37.2042 -97.5250 106° East 478 550 39,000  Level Kansas City Center
02:50PM 37.1650 -97.3678 107° East 475 547 39,000  Level Kansas City Center
02:51PM 37.1269 -97.2097 107° East 476 548 39,000  Level Kansas City Center
02:52PM 37.0811 -97.0183 107° East 479 551 39,000  Level Kansas City Center
02:53PM 37.0417 -96.8608 107° East 476 548 39,000  Level Kansas City Center
02:54PM 37.0069 -96.7097 106° East 478 550 39,000  Level Kansas City Center
02:56PM 36.9672 -96.5514 107° East 477 549 39,000  Level Kansas City Center
02:57PM 36.9214 -96.3614 107° East 475 547 39,000  Level Kansas City Center
02:58PM 36.8817 -96.2042 107° East 473 544 39,000  Level Kansas City Center
02:59PM 36.8425 -96.0483 107° East 469 540 39,000  Level Kansas City Center
03:00PM 36.7997 -95.8933 109° East 469 540 39,000  Level Kansas City Center
03:01PM 36.7511 -95.7411 112° Southeast 471 542 39,000  Level Kansas City Center
03:02PM 36.7056 -95.5878 110° East 470 541 39,000  Level Kansas City Center
03:03PM 36.6586 -95.4336 111° Southeast 469 540 39,000  Level Kansas City Center
03:04PM 36.6053 -95.2586 111° Southeast 470 541 39,000  Level Kansas City Center
03:05PM 36.5578 -95.1081 111° Southeast 470 541 39,000  Level Kansas City Center
03:06PM 36.5050 -94.9419 112° Southeast 471 542 39,000  Level Kansas City Center
03:07PM 36.4581 -94.7914 111° Southeast 466 536 39,000  Level Kansas City Center
03:08PM 36.4097 -94.6397 112° Southeast 469 540 39,000  Level Kansas City Center
03:09PM 36.3631 -94.4883 111° Southeast 469 540 39,000  Level Kansas City Center
03:10PM 36.3086 -94.3128 111° Southeast 462 532 39,000  Level Memphis Center
03:11PM 36.2686 -94.1897 112° Southeast 467 537 39,000  Level Memphis Center
03:12PM 36.2194 -94.0256 110° East 462 532 39,000  Level Memphis Center
03:13PM 36.1778 -93.8744 109° East 462 532 39,000  Level Memphis Center
03:14PM 36.1361 -93.7236 109° East 462 532 39,000  Level Memphis Center
03:15PM 36.0922 -93.5703 109° East 467 537 39,000  Level Memphis Center
03:16PM 36.0586 -93.4175 105° East 467 537 39,000  Level Memphis Center
03:17PM 36.0247 -93.2647 105° East 462 532 39,000  Level Memphis Center
03:18PM 35.9950 -93.1097 103° East 462 532 39,000  Level Memphis Center
03:19PM 35.9625 -92.9625 105° East 454 522 39,000  Level Memphis Center
03:20PM 35.9303 -92.8103 105° East 454 522 39,000  Level Memphis Center
03:21PM 35.8975 -92.6608 105° East 454 522 39,000  Level Memphis Center
03:22PM 35.8647 -92.5111 105° East 454 522 39,000  Level Memphis Center
03:23PM 35.8319 -92.3644 105° East 454 522 39,000  Level Memphis Center
03:24PM 35.7967 -92.2125 106° East 454 522 39,000  Level Memphis Center
03:25PM 35.7633 -92.0608 105° East 454 522 39,000  Level Memphis Center
03:26PM 35.7300 -91.9119 105° East 459 528 39,000  Level Memphis Center
03:27PM 35.6961 -91.7606 105° East 459 528 39,000  Level Memphis Center
03:28PM 35.6622 -91.6092 105° East 459 528 39,000  Level Memphis Center
03:29PM 35.6283 -91.4606 106° East 459 528 39,000  Level Memphis Center
03:30PM 35.5878 -91.2992 107° East 454 522 39,000  Level Memphis Center
03:31PM 35.5536 -91.1481 105° East 459 528 39,000  Level Memphis Center
03:32PM 35.5211 -90.9972 105° East 459 528 39,000  Level Memphis Center
03:33PM 35.4883 -90.8619 107° East 459 528 39,000  Level Memphis Center
03:34PM 35.4511 -90.7114 107° East 459 528 39,000  Level Memphis Center
03:35PM 35.4161 -90.5608 106° East 459 528 39,000  Level Memphis Center
03:36PM 35.3808 -90.4056 106° East 459 528 39,000  Level Memphis Center
03:37PM 35.3431 -90.2578 107° East 459 528 39,000  Level Memphis Center
03:38PM 35.3053 -90.0925 106° East 465 535 39,000  Level Memphis Center
03:39PM 35.2675 -89.9375 107° East 465 535 39,000  Level Memphis Center
03:40PM 35.2314 -89.7878 106° East 465 535 39,000  Level Memphis Center
03:41PM 35.1931 -89.6328 107° East 465 535 39,000  Level Memphis Center
03:42PM 35.1544 -89.4808 107° East 465 535 39,000  Level Memphis Center
03:43PM 35.1156 -89.3289 107° East 465 535 39,000  Level Memphis Center
03:44PM 35.0792 -89.1950 108° East 465 535 39,000 -60 Level Memphis Center
03:45PM 35.0422 -89.0458 107° East 460 529 38,900 -480 Descending Memphis Center
03:46PM 35.0050 -88.8969 107° East 455 524 38,100 -900 Descending Memphis Center
03:47PM 34.9656 -88.7531 108° East 455 524 37,100 -900 Descending Memphis Center
03:48PM 34.9303 -88.6069 106° East 455 524 36,300 -900 Descending Memphis Center
03:49PM 34.8928 -88.4708 109° East 443 510 35,300 -960 Descending Memphis Center
03:50PM 34.8550 -88.3275 108° East 438 504 34,400 -900 Descending Memphis Center
03:51PM 34.8125 -88.1564 107° East 456 525 33,500 -720 Descending Memphis Center
03:52PM 34.7722 -88.0133 109° East 465 535 33,000 -300 Descending Memphis Center
03:53PM 34.7342 -87.8706 108° East 454 522 33,000  Level Memphis Center
03:54PM 34.6956 -87.7175 107° East 464 534 33,000  Level Memphis Center
03:55PM 34.6589 -87.5672 106° East 464 534 33,000  Level Memphis Center
03:56PM 34.6136 -87.4172 110° East 464 534 33,000  Level Memphis Center
03:57PM 34.5853 -87.2406 101° East 474 545 33,000  Level Atlanta Center
03:58PM 34.5536 -87.0906 104° East 474 545 33,000  Level Atlanta Center
03:59PM 34.5242 -86.9356 103° East 468 539 33,000 -540 Level Atlanta Center
04:00PM 34.4942 -86.7783 103° East 468 539 32,000 -1,320 Descending Atlanta Center
04:01PM 34.4642 -86.6236 103° East 473 544 30,400 -1,500 Descending Atlanta Center
04:02PM 34.4342 -86.4617 103° East 478 550 29,000 -1,260 Descending Atlanta Center
04:03PM 34.4017 -86.3019 104° East 478 550 27,900 -1,200 Descending Atlanta Center
04:04PM 34.3731 -86.1453 102° East 478 550 26,700 -900 Descending Atlanta Center
04:05PM 34.3403 -85.9911 104° East 478 550 26,100 -1,260 Descending Atlanta Center
04:06PM 34.3008 -85.8417 108° East 473 544 24,200 -2,100 Descending Atlanta Center
04:07PM 34.2633 -85.6928 107° East 438 504 22,000 -1,980 Descending Atlanta Center
04:08PM 34.2336 -85.5714 106° East 419 482 20,300 -1,920 Descending Atlanta Center
04:09PM 34.2017 -85.4478 107° East 406 467 18,200 -1,920 Descending Atlanta Center
04:10PM 34.1675 -85.3242 108° East 394 453 16,500 -1,800 Descending Atlanta Center
04:11PM 34.1372 -85.2058 107° East 380 437 14,600 -1,620 Descending Atlanta Center
04:12PM 34.1069 -85.0925 108° East 360 414 13,300 -840 Descending Atlanta Center
04:13PM 34.0681 -84.9992 117° Southeast 327 376 13,000 -900 Descending Atlanta Center
04:14PM 34.0061 -84.9183 133° Southeast 308 354 11,600 -1,440 Descending Atlanta Center
04:15PM 33.9503 -84.8478 134° Southeast 293 337 10,200 -1,380 Descending Atlanta Center
04:16PM 33.8772 -84.8219 164° South 269 310 8,900 -1,740 Descending Atlanta Center
04:17PM 33.8003 -84.8114 173° South 275 316 6,800 -2,340 Descending Atlanta Center
04:18PM 33.7333 -84.7833 161° South 274 315 4,600 -1,380 Descending Atlanta TRACON
04:19PM 33.6667 -84.7333 148° Southeast 236 272 4,000 -300 Descending Atlanta TRACON
04:20PM 33.6500 -84.6667 107° East 208 239 4,000  Level Atlanta TRACON